sensor_id;sensor_type;location;lat;lon;timestamp;temperature;humidity
8220;DHT22;4151;51.110;7.020;2022-12-07T00:00:41;4.50;99.90
8220;DHT22;4151;51.110;7.020;2022-12-07T00:03:07;4.50;99.90
8220;DHT22;4151;51.110;7.020;2022-12-07T00:05:32;4.50;99.90
8220;DHT22;4151;51.110;7.020;2022-12-07T00:07:58;4.50;99.90
8220;DHT22;4151;51.110;7.020;2022-12-07T00:10:23;4.50;99.90
8220;DHT22;4151;51.110;7.020;2022-12-07T00:12:49;4.50;99.90
8220;DHT22;4151;51.110;7.020;2022-12-07T00:15:15;4.50;99.90
8220;DHT22;4151;51.110;7.020;2022-12-07T00:17:41;4.50;99.90
8220;DHT22;4151;51.110;7.020;2022-12-07T00:20:07;4.50;99.90
8220;DHT22;4151;51.110;7.020;2022-12-07T00:22:32;4.50;99.90
8220;DHT22;4151;51.110;7.020;2022-12-07T00:24:58;4.50;99.90
8220;DHT22;4151;51.110;7.020;2022-12-07T00:27:23;4.50;99.90
8220;DHT22;4151;51.110;7.020;2022-12-07T00:29:49;4.50;99.90
8220;DHT22;4151;51.110;7.020;2022-12-07T00:32:14;4.50;99.90
8220;DHT22;4151;51.110;7.020;2022-12-07T00:34:40;4.50;99.90
8220;DHT22;4151;51.110;7.020;2022-12-07T00:37:05;4.50;99.90
8220;DHT22;4151;51.110;7.020;2022-12-07T00:39:31;4.50;99.90
8220;DHT22;4151;51.110;7.020;2022-12-07T00:41:56;4.50;99.90
8220;DHT22;4151;51.110;7.020;2022-12-07T00:44:22;4.50;99.90
8220;DHT22;4151;51.110;7.020;2022-12-07T00:46:47;4.50;99.90
8220;DHT22;4151;51.110;7.020;2022-12-07T00:49:13;4.50;99.90
8220;DHT22;4151;51.110;7.020;2022-12-07T00:51:39;4.50;99.90
8220;DHT22;4151;51.110;7.020;2022-12-07T00:54:04;4.50;99.90
8220;DHT22;4151;51.110;7.020;2022-12-07T00:56:30;4.50;99.90
8220;DHT22;4151;51.110;7.020;2022-12-07T00:59:03;4.50;99.90
8220;DHT22;4151;51.110;7.020;2022-12-07T01:01:32;4.50;99.90
8220;DHT22;4151;51.110;7.020;2022-12-07T01:03:58;4.50;99.90
8220;DHT22;4151;51.110;7.020;2022-12-07T01:06:25;4.50;99.90
8220;DHT22;4151;51.110;7.020;2022-12-07T01:08:51;4.50;99.90
8220;DHT22;4151;51.110;7.020;2022-12-07T01:11:19;4.50;99.90
8220;DHT22;4151;51.110;7.020;2022-12-07T01:13:45;4.50;99.90
8220;DHT22;4151;51.110;7.020;2022-12-07T01:16:14;4.50;99.90
8220;DHT22;4151;51.110;7.020;2022-12-07T01:18:40;4.50;99.90
8220;DHT22;4151;51.110;7.020;2022-12-07T01:21:11;4.50;99.90
8220;DHT22;4151;51.110;7.020;2022-12-07T01:23:37;4.50;99.90
8220;DHT22;4151;51.110;7.020;2022-12-07T01:26:05;4.50;99.90
8220;DHT22;4151;51.110;7.020;2022-12-07T01:28:32;4.50;99.90
8220;DHT22;4151;51.110;7.020;2022-12-07T01:31:00;4.50;99.90
8220;DHT22;4151;51.110;7.020;2022-12-07T01:33:31;4.50;99.90
8220;DHT22;4151;51.110;7.020;2022-12-07T01:38:44;4.40;99.90
8220;DHT22;4151;51.110;7.020;2022-12-07T01:41:11;4.40;99.90
8220;DHT22;4151;51.110;7.020;2022-12-07T01:44:06;4.40;99.90
8220;DHT22;4151;51.110;7.020;2022-12-07T01:46:22;4.40;99.90
8220;DHT22;4151;51.110;7.020;2022-12-07T01:48:48;4.40;99.90
8220;DHT22;4151;51.110;7.020;2022-12-07T01:51:14;4.40;99.90
8220;DHT22;4151;51.110;7.020;2022-12-07T01:53:42;4.40;99.90
8220;DHT22;4151;51.110;7.020;2022-12-07T01:56:11;4.40;99.90
8220;DHT22;4151;51.110;7.020;2022-12-07T01:58:38;4.40;99.90
8220;DHT22;4151;51.110;7.020;2022-12-07T02:01:04;4.40;99.90
8220;DHT22;4151;51.110;7.020;2022-12-07T02:03:38;4.40;99.90
8220;DHT22;4151;51.110;7.020;2022-12-07T02:06:05;4.50;99.90
8220;DHT22;4151;51.110;7.020;2022-12-07T02:08:32;4.40;99.90
8220;DHT22;4151;51.110;7.020;2022-12-07T02:10:58;4.40;99.90
8220;DHT22;4151;51.110;7.020;2022-12-07T02:13:31;4.40;99.90
8220;DHT22;4151;51.110;7.020;2022-12-07T02:24:54;4.40;99.90
8220;DHT22;4151;51.110;7.020;2022-12-07T02:30:13;4.40;99.90
8220;DHT22;4151;51.110;7.020;2022-12-07T02:35:32;4.40;99.90
8220;DHT22;4151;51.110;7.020;2022-12-07T02:38:19;4.40;99.90
8220;DHT22;4151;51.110;7.020;2022-12-07T02:40:57;4.40;99.90
8220;DHT22;4151;51.110;7.020;2022-12-07T02:43:25;4.40;99.90
8220;DHT22;4151;51.110;7.020;2022-12-07T02:45:54;4.40;99.90
8220;DHT22;4151;51.110;7.020;2022-12-07T02:48:21;4.40;99.90
8220;DHT22;4151;51.110;7.020;2022-12-07T02:50:49;4.40;99.90
8220;DHT22;4151;51.110;7.020;2022-12-07T02:53:35;4.40;99.90
8220;DHT22;4151;51.110;7.020;2022-12-07T03:05:01;4.50;99.90
8220;DHT22;4151;51.110;7.020;2022-12-07T03:07:46;4.40;99.90
8220;DHT22;4151;51.110;7.020;2022-12-07T03:10:27;4.40;99.90
8220;DHT22;4151;51.110;7.020;2022-12-07T03:13:05;4.40;99.90
8220;DHT22;4151;51.110;7.020;2022-12-07T03:16:28;4.40;99.90
8220;DHT22;4151;51.110;7.020;2022-12-07T03:18:31;4.40;99.90
8220;DHT22;4151;51.110;7.020;2022-12-07T03:21:01;4.40;99.90
8220;DHT22;4151;51.110;7.020;2022-12-07T03:23:28;4.40;99.90
8220;DHT22;4151;51.110;7.020;2022-12-07T03:25:59;4.40;99.90
8220;DHT22;4151;51.110;7.020;2022-12-07T03:28:29;4.40;99.90
8220;DHT22;4151;51.110;7.020;2022-12-07T03:31:45;4.40;99.90
8220;DHT22;4151;51.110;7.020;2022-12-07T03:33:53;4.40;99.90
8220;DHT22;4151;51.110;7.020;2022-12-07T03:36:29;4.50;99.90
8220;DHT22;4151;51.110;7.020;2022-12-07T03:41:31;4.50;99.90
8220;DHT22;4151;51.110;7.020;2022-12-07T03:43:58;4.50;99.90
8220;DHT22;4151;51.110;7.020;2022-12-07T03:51:54;4.40;99.90
8220;DHT22;4151;51.110;7.020;2022-12-07T03:54:28;4.40;99.90
8220;DHT22;4151;51.110;7.020;2022-12-07T03:56:57;4.40;99.90
8220;DHT22;4151;51.110;7.020;2022-12-07T03:59:23;4.40;99.90
8220;DHT22;4151;51.110;7.020;2022-12-07T04:01:55;4.40;99.90
8220;DHT22;4151;51.110;7.020;2022-12-07T04:04:22;4.40;99.90
8220;DHT22;4151;51.110;7.020;2022-12-07T04:06:48;4.40;99.90
8220;DHT22;4151;51.110;7.020;2022-12-07T04:09:14;4.50;99.90
8220;DHT22;4151;51.110;7.020;2022-12-07T04:11:40;4.50;99.90
8220;DHT22;4151;51.110;7.020;2022-12-07T04:14:05;4.50;99.90
8220;DHT22;4151;51.110;7.020;2022-12-07T04:16:51;4.40;99.90
8220;DHT22;4151;51.110;7.020;2022-12-07T04:19:18;4.40;99.90
8220;DHT22;4151;51.110;7.020;2022-12-07T04:21:44;4.40;99.90
8220;DHT22;4151;51.110;7.020;2022-12-07T04:24:12;4.40;99.90
8220;DHT22;4151;51.110;7.020;2022-12-07T04:26:38;4.40;99.90
8220;DHT22;4151;51.110;7.020;2022-12-07T04:29:03;4.40;99.90
8220;DHT22;4151;51.110;7.020;2022-12-07T04:31:29;4.40;99.90
8220;DHT22;4151;51.110;7.020;2022-12-07T04:33:54;4.40;99.90
8220;DHT22;4151;51.110;7.020;2022-12-07T04:36:20;4.40;99.90
8220;DHT22;4151;51.110;7.020;2022-12-07T04:38:46;4.40;99.90
8220;DHT22;4151;51.110;7.020;2022-12-07T04:41:12;4.40;99.90
8220;DHT22;4151;51.110;7.020;2022-12-07T04:43:38;4.40;99.90
8220;DHT22;4151;51.110;7.020;2022-12-07T04:46:03;4.40;99.90
8220;DHT22;4151;51.110;7.020;2022-12-07T04:48:29;4.40;99.90
8220;DHT22;4151;51.110;7.020;2022-12-07T04:50:55;4.40;99.90
8220;DHT22;4151;51.110;7.020;2022-12-07T04:53:20;4.40;99.90
8220;DHT22;4151;51.110;7.020;2022-12-07T04:55:46;4.40;99.90
8220;DHT22;4151;51.110;7.020;2022-12-07T04:58:12;4.30;99.90
8220;DHT22;4151;51.110;7.020;2022-12-07T05:00:38;4.30;99.90
8220;DHT22;4151;51.110;7.020;2022-12-07T05:03:04;4.40;99.90
8220;DHT22;4151;51.110;7.020;2022-12-07T05:05:30;4.30;99.90
8220;DHT22;4151;51.110;7.020;2022-12-07T05:07:56;4.30;99.90
8220;DHT22;4151;51.110;7.020;2022-12-07T05:10:21;4.30;99.90
8220;DHT22;4151;51.110;7.020;2022-12-07T05:12:47;4.30;99.90
8220;DHT22;4151;51.110;7.020;2022-12-07T05:15:14;4.30;99.90
8220;DHT22;4151;51.110;7.020;2022-12-07T05:17:39;4.30;99.90
8220;DHT22;4151;51.110;7.020;2022-12-07T05:20:05;4.30;99.90
8220;DHT22;4151;51.110;7.020;2022-12-07T05:22:31;4.30;99.90
8220;DHT22;4151;51.110;7.020;2022-12-07T05:24:57;4.30;99.90
8220;DHT22;4151;51.110;7.020;2022-12-07T05:27:22;4.30;99.90
8220;DHT22;4151;51.110;7.020;2022-12-07T05:29:50;4.20;99.90
8220;DHT22;4151;51.110;7.020;2022-12-07T05:32:16;4.20;99.90
8220;DHT22;4151;51.110;7.020;2022-12-07T05:34:41;4.20;99.90
8220;DHT22;4151;51.110;7.020;2022-12-07T05:37:07;4.20;99.90
8220;DHT22;4151;51.110;7.020;2022-12-07T05:39:32;4.20;99.90
8220;DHT22;4151;51.110;7.020;2022-12-07T05:41:58;4.20;99.90
8220;DHT22;4151;51.110;7.020;2022-12-07T05:44:40;4.10;99.90
8220;DHT22;4151;51.110;7.020;2022-12-07T05:47:06;4.10;99.90
8220;DHT22;4151;51.110;7.020;2022-12-07T05:49:31;4.10;99.90
8220;DHT22;4151;51.110;7.020;2022-12-07T05:51:57;4.10;99.90
8220;DHT22;4151;51.110;7.020;2022-12-07T05:54:23;4.10;99.90
8220;DHT22;4151;51.110;7.020;2022-12-07T05:56:48;4.10;99.90
8220;DHT22;4151;51.110;7.020;2022-12-07T05:59:14;4.00;99.90
8220;DHT22;4151;51.110;7.020;2022-12-07T06:02:10;4.00;99.90
8220;DHT22;4151;51.110;7.020;2022-12-07T06:04:42;4.00;99.90
8220;DHT22;4151;51.110;7.020;2022-12-07T06:07:09;4.00;99.90
8220;DHT22;4151;51.110;7.020;2022-12-07T06:09:35;4.00;99.90
8220;DHT22;4151;51.110;7.020;2022-12-07T06:12:01;3.90;99.90
8220;DHT22;4151;51.110;7.020;2022-12-07T06:14:46;3.90;99.90
8220;DHT22;4151;51.110;7.020;2022-12-07T06:17:12;3.90;99.90
8220;DHT22;4151;51.110;7.020;2022-12-07T06:19:38;3.90;99.90
8220;DHT22;4151;51.110;7.020;2022-12-07T06:22:04;3.90;99.90
8220;DHT22;4151;51.110;7.020;2022-12-07T06:24:31;3.90;99.90
8220;DHT22;4151;51.110;7.020;2022-12-07T06:26:57;3.90;99.90
8220;DHT22;4151;51.110;7.020;2022-12-07T06:29:22;3.90;99.90
8220;DHT22;4151;51.110;7.020;2022-12-07T06:31:48;3.90;99.90
8220;DHT22;4151;51.110;7.020;2022-12-07T06:34:16;4.00;99.90
8220;DHT22;4151;51.110;7.020;2022-12-07T06:36:42;4.00;99.90
8220;DHT22;4151;51.110;7.020;2022-12-07T06:39:08;3.90;99.90
8220;DHT22;4151;51.110;7.020;2022-12-07T06:41:37;3.90;99.90
8220;DHT22;4151;51.110;7.020;2022-12-07T06:44:04;4.00;99.90
8220;DHT22;4151;51.110;7.020;2022-12-07T06:46:30;3.90;99.90
8220;DHT22;4151;51.110;7.020;2022-12-07T06:48:56;3.90;99.90
8220;DHT22;4151;51.110;7.020;2022-12-07T06:51:22;3.80;99.90
8220;DHT22;4151;51.110;7.020;2022-12-07T06:53:47;3.80;99.90
8220;DHT22;4151;51.110;7.020;2022-12-07T06:56:13;3.70;99.90
8220;DHT22;4151;51.110;7.020;2022-12-07T06:58:39;3.70;99.90
8220;DHT22;4151;51.110;7.020;2022-12-07T07:01:13;3.70;99.90
8220;DHT22;4151;51.110;7.020;2022-12-07T07:03:39;3.70;99.90
8220;DHT22;4151;51.110;7.020;2022-12-07T07:06:05;3.70;99.90
8220;DHT22;4151;51.110;7.020;2022-12-07T07:08:31;3.70;99.90
8220;DHT22;4151;51.110;7.020;2022-12-07T07:10:57;3.80;99.90
8220;DHT22;4151;51.110;7.020;2022-12-07T07:13:22;3.80;99.90
8220;DHT22;4151;51.110;7.020;2022-12-07T07:15:48;3.80;99.90
8220;DHT22;4151;51.110;7.020;2022-12-07T07:18:13;3.80;99.90
8220;DHT22;4151;51.110;7.020;2022-12-07T07:20:39;3.80;99.90
8220;DHT22;4151;51.110;7.020;2022-12-07T07:23:05;3.80;99.90
8220;DHT22;4151;51.110;7.020;2022-12-07T07:25:31;3.80;99.90
8220;DHT22;4151;51.110;7.020;2022-12-07T07:27:57;3.80;99.90
8220;DHT22;4151;51.110;7.020;2022-12-07T07:30:22;3.80;99.90
8220;DHT22;4151;51.110;7.020;2022-12-07T07:32:48;3.80;99.90
8220;DHT22;4151;51.110;7.020;2022-12-07T07:35:14;3.80;99.90
8220;DHT22;4151;51.110;7.020;2022-12-07T07:37:40;3.80;99.90
8220;DHT22;4151;51.110;7.020;2022-12-07T07:40:07;3.80;99.90
8220;DHT22;4151;51.110;7.020;2022-12-07T07:42:33;3.80;99.90
8220;DHT22;4151;51.110;7.020;2022-12-07T07:44:58;3.80;99.90
8220;DHT22;4151;51.110;7.020;2022-12-07T07:47:24;3.90;99.90
8220;DHT22;4151;51.110;7.020;2022-12-07T07:49:49;3.80;99.90
8220;DHT22;4151;51.110;7.020;2022-12-07T07:52:15;3.80;99.90
8220;DHT22;4151;51.110;7.020;2022-12-07T07:54:41;3.90;99.90
8220;DHT22;4151;51.110;7.020;2022-12-07T07:57:06;3.90;99.90
8220;DHT22;4151;51.110;7.020;2022-12-07T07:59:32;3.90;99.90
8220;DHT22;4151;51.110;7.020;2022-12-07T08:01:57;3.90;99.90
8220;DHT22;4151;51.110;7.020;2022-12-07T08:04:23;3.90;99.90
8220;DHT22;4151;51.110;7.020;2022-12-07T08:06:49;4.00;99.90
8220;DHT22;4151;51.110;7.020;2022-12-07T08:09:14;4.00;99.90
8220;DHT22;4151;51.110;7.020;2022-12-07T08:11:40;4.00;99.90
8220;DHT22;4151;51.110;7.020;2022-12-07T08:14:05;3.90;99.90
8220;DHT22;4151;51.110;7.020;2022-12-07T08:16:31;3.90;99.90
8220;DHT22;4151;51.110;7.020;2022-12-07T08:18:57;4.00;99.90
8220;DHT22;4151;51.110;7.020;2022-12-07T08:21:22;4.00;99.90
8220;DHT22;4151;51.110;7.020;2022-12-07T08:23:48;4.00;99.90
8220;DHT22;4151;51.110;7.020;2022-12-07T08:26:15;4.00;99.90
8220;DHT22;4151;51.110;7.020;2022-12-07T08:28:41;4.00;99.90
8220;DHT22;4151;51.110;7.020;2022-12-07T08:31:13;4.00;99.90
8220;DHT22;4151;51.110;7.020;2022-12-07T08:33:39;4.00;99.90
8220;DHT22;4151;51.110;7.020;2022-12-07T08:36:08;4.10;99.90
8220;DHT22;4151;51.110;7.020;2022-12-07T08:38:38;4.10;99.90
8220;DHT22;4151;51.110;7.020;2022-12-07T08:41:04;4.10;99.90
8220;DHT22;4151;51.110;7.020;2022-12-07T08:43:30;4.10;99.90
8220;DHT22;4151;51.110;7.020;2022-12-07T08:46:20;4.20;99.90
8220;DHT22;4151;51.110;7.020;2022-12-07T08:48:54;4.20;99.90
8220;DHT22;4151;51.110;7.020;2022-12-07T08:51:22;4.20;99.90
8220;DHT22;4151;51.110;7.020;2022-12-07T08:53:50;4.20;99.90
8220;DHT22;4151;51.110;7.020;2022-12-07T08:56:16;4.20;99.90
8220;DHT22;4151;51.110;7.020;2022-12-07T08:58:42;4.30;99.90
8220;DHT22;4151;51.110;7.020;2022-12-07T09:01:08;4.30;99.90
8220;DHT22;4151;51.110;7.020;2022-12-07T09:03:34;4.40;99.90
8220;DHT22;4151;51.110;7.020;2022-12-07T09:06:00;4.40;99.90
8220;DHT22;4151;51.110;7.020;2022-12-07T09:08:36;4.30;99.90
8220;DHT22;4151;51.110;7.020;2022-12-07T09:11:03;4.30;99.90
8220;DHT22;4151;51.110;7.020;2022-12-07T09:13:29;4.40;99.90
8220;DHT22;4151;51.110;7.020;2022-12-07T09:15:54;4.30;99.90
8220;DHT22;4151;51.110;7.020;2022-12-07T09:18:20;4.30;99.90
8220;DHT22;4151;51.110;7.020;2022-12-07T09:20:46;4.30;99.90
8220;DHT22;4151;51.110;7.020;2022-12-07T09:23:11;4.10;99.90
8220;DHT22;4151;51.110;7.020;2022-12-07T09:25:37;4.10;99.90
8220;DHT22;4151;51.110;7.020;2022-12-07T09:28:02;4.20;99.90
8220;DHT22;4151;51.110;7.020;2022-12-07T09:30:28;4.20;99.90
8220;DHT22;4151;51.110;7.020;2022-12-07T09:32:55;4.30;99.90
8220;DHT22;4151;51.110;7.020;2022-12-07T09:35:21;4.30;99.90
8220;DHT22;4151;51.110;7.020;2022-12-07T09:37:47;4.30;99.90
8220;DHT22;4151;51.110;7.020;2022-12-07T09:40:13;4.20;99.90
8220;DHT22;4151;51.110;7.020;2022-12-07T09:42:42;4.20;99.90
8220;DHT22;4151;51.110;7.020;2022-12-07T09:45:22;4.20;99.90
8220;DHT22;4151;51.110;7.020;2022-12-07T09:47:48;4.40;99.90
8220;DHT22;4151;51.110;7.020;2022-12-07T09:50:19;4.40;99.90
8220;DHT22;4151;51.110;7.020;2022-12-07T09:52:45;4.40;99.90
8220;DHT22;4151;51.110;7.020;2022-12-07T09:55:16;4.60;99.90
8220;DHT22;4151;51.110;7.020;2022-12-07T09:57:42;4.60;99.90
8220;DHT22;4151;51.110;7.020;2022-12-07T10:00:16;4.60;99.90
8220;DHT22;4151;51.110;7.020;2022-12-07T10:02:58;4.70;99.90
8220;DHT22;4151;51.110;7.020;2022-12-07T10:07:56;5.00;99.90
8220;DHT22;4151;51.110;7.020;2022-12-07T10:10:29;4.90;99.90
8220;DHT22;4151;51.110;7.020;2022-12-07T10:15:22;4.70;99.90
8220;DHT22;4151;51.110;7.020;2022-12-07T10:17:52;4.80;99.90
8220;DHT22;4151;51.110;7.020;2022-12-07T10:20:23;4.80;99.90
8220;DHT22;4151;51.110;7.020;2022-12-07T10:25:33;5.00;99.90
8220;DHT22;4151;51.110;7.020;2022-12-07T10:33:37;5.10;99.90
8220;DHT22;4151;51.110;7.020;2022-12-07T10:39:09;5.10;99.90
8220;DHT22;4151;51.110;7.020;2022-12-07T10:41:36;5.20;99.90
8220;DHT22;4151;51.110;7.020;2022-12-07T10:44:22;5.20;99.90
8220;DHT22;4151;51.110;7.020;2022-12-07T10:52:45;5.20;99.90
8220;DHT22;4151;51.110;7.020;2022-12-07T10:55:19;5.10;99.90
8220;DHT22;4151;51.110;7.020;2022-12-07T10:58:31;5.10;99.90
8220;DHT22;4151;51.110;7.020;2022-12-07T11:01:23;5.10;99.90
8220;DHT22;4151;51.110;7.020;2022-12-07T11:13:34;5.30;99.90
8220;DHT22;4151;51.110;7.020;2022-12-07T11:18:21;5.20;99.90
8220;DHT22;4151;51.110;7.020;2022-12-07T11:20:53;5.20;99.90
8220;DHT22;4151;51.110;7.020;2022-12-07T11:29:19;5.50;99.90
8220;DHT22;4151;51.110;7.020;2022-12-07T11:31:51;5.50;99.90
8220;DHT22;4151;51.110;7.020;2022-12-07T11:36:57;5.60;99.90
8220;DHT22;4151;51.110;7.020;2022-12-07T11:39:35;5.70;99.90
8220;DHT22;4151;51.110;7.020;2022-12-07T11:42:16;5.70;99.90
8220;DHT22;4151;51.110;7.020;2022-12-07T11:44:59;5.70;99.90
8220;DHT22;4151;51.110;7.020;2022-12-07T11:47:45;5.70;99.90
8220;DHT22;4151;51.110;7.020;2022-12-07T11:53:00;5.60;99.90
8220;DHT22;4151;51.110;7.020;2022-12-07T11:58:21;5.60;99.90
8220;DHT22;4151;51.110;7.020;2022-12-07T12:00:51;5.90;99.90
8220;DHT22;4151;51.110;7.020;2022-12-07T12:03:30;6.20;99.90
8220;DHT22;4151;51.110;7.020;2022-12-07T12:05:58;6.20;99.90
8220;DHT22;4151;51.110;7.020;2022-12-07T12:08:29;6.10;99.90
8220;DHT22;4151;51.110;7.020;2022-12-07T12:17:16;6.40;99.90
8220;DHT22;4151;51.110;7.020;2022-12-07T12:22:20;6.90;99.90
8220;DHT22;4151;51.110;7.020;2022-12-07T12:24:51;7.00;99.90
8220;DHT22;4151;51.110;7.020;2022-12-07T12:27:32;7.40;99.90
8220;DHT22;4151;51.110;7.020;2022-12-07T12:30:02;7.30;99.90
8220;DHT22;4151;51.110;7.020;2022-12-07T12:32:41;7.40;99.90
8220;DHT22;4151;51.110;7.020;2022-12-07T12:38:29;8.40;99.90
8220;DHT22;4151;51.110;7.020;2022-12-07T12:40:56;8.60;99.90
8220;DHT22;4151;51.110;7.020;2022-12-07T12:43:45;9.10;99.90
8220;DHT22;4151;51.110;7.020;2022-12-07T12:51:51;9.60;99.90
8220;DHT22;4151;51.110;7.020;2022-12-07T12:54:22;9.50;99.90
8220;DHT22;4151;51.110;7.020;2022-12-07T12:57:09;8.40;99.90
8220;DHT22;4151;51.110;7.020;2022-12-07T13:02:29;7.00;99.90
8220;DHT22;4151;51.110;7.020;2022-12-07T13:19:56;6.80;99.90
8220;DHT22;4151;51.110;7.020;2022-12-07T13:25:46;6.50;99.90
8220;DHT22;4151;51.110;7.020;2022-12-07T13:28:17;6.30;99.90
8220;DHT22;4151;51.110;7.020;2022-12-07T13:33:16;5.90;99.90
8220;DHT22;4151;51.110;7.020;2022-12-07T13:35:42;5.80;99.90
8220;DHT22;4151;51.110;7.020;2022-12-07T13:38:33;5.70;99.90
8220;DHT22;4151;51.110;7.020;2022-12-07T13:41:00;5.70;99.90
8220;DHT22;4151;51.110;7.020;2022-12-07T13:43:26;5.60;99.90
8220;DHT22;4151;51.110;7.020;2022-12-07T13:45:58;5.60;99.90
8220;DHT22;4151;51.110;7.020;2022-12-07T13:51:23;5.60;99.90
8220;DHT22;4151;51.110;7.020;2022-12-07T13:53:52;5.60;99.90
8220;DHT22;4151;51.110;7.020;2022-12-07T13:56:22;5.60;99.90
8220;DHT22;4151;51.110;7.020;2022-12-07T13:58:51;5.70;99.90
8220;DHT22;4151;51.110;7.020;2022-12-07T14:01:17;5.70;99.90
8220;DHT22;4151;51.110;7.020;2022-12-07T14:03:43;5.70;99.90
8220;DHT22;4151;51.110;7.020;2022-12-07T14:08:41;5.70;99.90
8220;DHT22;4151;51.110;7.020;2022-12-07T14:11:12;5.70;99.90
8220;DHT22;4151;51.110;7.020;2022-12-07T14:13:56;5.80;99.90
8220;DHT22;4151;51.110;7.020;2022-12-07T14:16:24;5.80;99.90
8220;DHT22;4151;51.110;7.020;2022-12-07T14:18:51;5.80;99.90
8220;DHT22;4151;51.110;7.020;2022-12-07T14:21:20;5.80;99.90
8220;DHT22;4151;51.110;7.020;2022-12-07T14:24:07;5.80;99.90
8220;DHT22;4151;51.110;7.020;2022-12-07T14:26:33;5.90;99.90
8220;DHT22;4151;51.110;7.020;2022-12-07T14:29:18;5.90;99.90
8220;DHT22;4151;51.110;7.020;2022-12-07T14:31:44;6.00;99.90
8220;DHT22;4151;51.110;7.020;2022-12-07T14:34:12;6.10;99.90
8220;DHT22;4151;51.110;7.020;2022-12-07T14:36:37;6.10;99.90
8220;DHT22;4151;51.110;7.020;2022-12-07T14:39:03;6.00;99.90
8220;DHT22;4151;51.110;7.020;2022-12-07T14:41:28;6.00;99.90
8220;DHT22;4151;51.110;7.020;2022-12-07T14:44:13;6.00;99.90
8220;DHT22;4151;51.110;7.020;2022-12-07T14:46:38;6.00;99.90
8220;DHT22;4151;51.110;7.020;2022-12-07T14:49:04;6.00;99.90
8220;DHT22;4151;51.110;7.020;2022-12-07T14:51:30;5.90;99.90
8220;DHT22;4151;51.110;7.020;2022-12-07T14:53:56;5.80;99.90
8220;DHT22;4151;51.110;7.020;2022-12-07T14:56:22;5.70;99.90
8220;DHT22;4151;51.110;7.020;2022-12-07T14:58:47;5.60;99.90
8220;DHT22;4151;51.110;7.020;2022-12-07T15:01:13;5.60;99.90
8220;DHT22;4151;51.110;7.020;2022-12-07T15:03:39;5.50;99.90
8220;DHT22;4151;51.110;7.020;2022-12-07T15:06:05;5.40;99.90
8220;DHT22;4151;51.110;7.020;2022-12-07T15:08:31;5.40;99.90
8220;DHT22;4151;51.110;7.020;2022-12-07T15:10:57;5.30;99.90
8220;DHT22;4151;51.110;7.020;2022-12-07T15:13:23;5.20;99.90
8220;DHT22;4151;51.110;7.020;2022-12-07T15:16:13;5.20;99.90
8220;DHT22;4151;51.110;7.020;2022-12-07T15:18:42;5.10;99.90
8220;DHT22;4151;51.110;7.020;2022-12-07T15:21:13;5.00;99.90
8220;DHT22;4151;51.110;7.020;2022-12-07T15:23:39;5.00;99.90
8220;DHT22;4151;51.110;7.020;2022-12-07T15:26:04;4.90;99.90
8220;DHT22;4151;51.110;7.020;2022-12-07T15:28:30;4.90;99.90
8220;DHT22;4151;51.110;7.020;2022-12-07T15:30:56;4.80;99.90
8220;DHT22;4151;51.110;7.020;2022-12-07T15:33:21;4.80;99.90
8220;DHT22;4151;51.110;7.020;2022-12-07T15:35:47;4.70;99.90
8220;DHT22;4151;51.110;7.020;2022-12-07T15:38:12;4.70;99.90
8220;DHT22;4151;51.110;7.020;2022-12-07T15:40:38;4.70;99.90
8220;DHT22;4151;51.110;7.020;2022-12-07T15:43:04;4.70;99.90
8220;DHT22;4151;51.110;7.020;2022-12-07T15:45:30;4.70;99.90
8220;DHT22;4151;51.110;7.020;2022-12-07T15:47:55;4.80;99.90
8220;DHT22;4151;51.110;7.020;2022-12-07T15:50:22;4.80;99.90
8220;DHT22;4151;51.110;7.020;2022-12-07T15:52:48;4.80;99.90
8220;DHT22;4151;51.110;7.020;2022-12-07T15:55:13;4.80;99.90
8220;DHT22;4151;51.110;7.020;2022-12-07T15:57:39;4.90;99.90
8220;DHT22;4151;51.110;7.020;2022-12-07T16:00:07;4.90;99.90
8220;DHT22;4151;51.110;7.020;2022-12-07T16:02:34;4.90;99.90
8220;DHT22;4151;51.110;7.020;2022-12-07T16:04:59;4.90;99.90
8220;DHT22;4151;51.110;7.020;2022-12-07T16:07:25;4.90;99.90
8220;DHT22;4151;51.110;7.020;2022-12-07T16:09:50;5.00;99.90
8220;DHT22;4151;51.110;7.020;2022-12-07T16:12:16;5.00;99.90
8220;DHT22;4151;51.110;7.020;2022-12-07T16:14:41;5.00;99.90
8220;DHT22;4151;51.110;7.020;2022-12-07T16:17:08;4.90;99.90
8220;DHT22;4151;51.110;7.020;2022-12-07T16:19:35;5.00;99.90
8220;DHT22;4151;51.110;7.020;2022-12-07T16:22:02;4.90;99.90
8220;DHT22;4151;51.110;7.020;2022-12-07T16:24:28;4.90;99.90
8220;DHT22;4151;51.110;7.020;2022-12-07T16:26:54;4.90;99.90
8220;DHT22;4151;51.110;7.020;2022-12-07T16:29:21;4.80;99.90
8220;DHT22;4151;51.110;7.020;2022-12-07T16:31:47;4.70;99.90
8220;DHT22;4151;51.110;7.020;2022-12-07T16:34:13;4.80;99.90
8220;DHT22;4151;51.110;7.020;2022-12-07T16:36:38;4.80;99.90
8220;DHT22;4151;51.110;7.020;2022-12-07T16:39:05;4.80;99.90
8220;DHT22;4151;51.110;7.020;2022-12-07T16:41:31;4.80;99.90
8220;DHT22;4151;51.110;7.020;2022-12-07T16:43:57;4.80;99.90
8220;DHT22;4151;51.110;7.020;2022-12-07T16:46:26;4.70;99.90
8220;DHT22;4151;51.110;7.020;2022-12-07T16:48:52;4.70;99.90
8220;DHT22;4151;51.110;7.020;2022-12-07T16:51:18;4.70;99.90
8220;DHT22;4151;51.110;7.020;2022-12-07T16:53:43;4.70;99.90
8220;DHT22;4151;51.110;7.020;2022-12-07T16:56:14;4.70;99.90
8220;DHT22;4151;51.110;7.020;2022-12-07T16:58:43;4.70;99.90
8220;DHT22;4151;51.110;7.020;2022-12-07T17:01:12;4.70;99.90
8220;DHT22;4151;51.110;7.020;2022-12-07T17:03:37;4.70;99.90
8220;DHT22;4151;51.110;7.020;2022-12-07T17:06:09;4.70;99.90
8220;DHT22;4151;51.110;7.020;2022-12-07T17:08:35;4.70;99.90
8220;DHT22;4151;51.110;7.020;2022-12-07T17:11:01;4.70;99.90
8220;DHT22;4151;51.110;7.020;2022-12-07T17:13:26;4.70;99.90
8220;DHT22;4151;51.110;7.020;2022-12-07T17:16:10;4.70;99.90
8220;DHT22;4151;51.110;7.020;2022-12-07T17:18:36;4.70;99.90
8220;DHT22;4151;51.110;7.020;2022-12-07T17:21:07;4.70;99.90
8220;DHT22;4151;51.110;7.020;2022-12-07T17:23:35;4.70;99.90
8220;DHT22;4151;51.110;7.020;2022-12-07T17:26:11;4.70;99.90
8220;DHT22;4151;51.110;7.020;2022-12-07T17:28:37;4.70;99.90
8220;DHT22;4151;51.110;7.020;2022-12-07T17:31:11;4.70;99.90
8220;DHT22;4151;51.110;7.020;2022-12-07T17:33:37;4.70;99.90
8220;DHT22;4151;51.110;7.020;2022-12-07T17:38:36;4.70;99.90
8220;DHT22;4151;51.110;7.020;2022-12-07T17:41:12;4.70;99.90
8220;DHT22;4151;51.110;7.020;2022-12-07T17:43:59;4.60;99.90
8220;DHT22;4151;51.110;7.020;2022-12-07T17:46:24;4.70;99.90
8220;DHT22;4151;51.110;7.020;2022-12-07T17:48:50;4.70;99.90
8220;DHT22;4151;51.110;7.020;2022-12-07T17:51:18;4.70;99.90
8220;DHT22;4151;51.110;7.020;2022-12-07T17:54:02;4.70;99.90
8220;DHT22;4151;51.110;7.020;2022-12-07T17:56:28;4.70;99.90
8220;DHT22;4151;51.110;7.020;2022-12-07T17:58:53;4.80;99.90
8220;DHT22;4151;51.110;7.020;2022-12-07T18:01:19;4.70;99.90
8220;DHT22;4151;51.110;7.020;2022-12-07T18:03:44;4.60;99.90
8220;DHT22;4151;51.110;7.020;2022-12-07T18:06:10;4.60;99.90
8220;DHT22;4151;51.110;7.020;2022-12-07T18:08:35;4.60;99.90
8220;DHT22;4151;51.110;7.020;2022-12-07T18:11:04;4.60;99.90
8220;DHT22;4151;51.110;7.020;2022-12-07T18:13:31;4.60;99.90
8220;DHT22;4151;51.110;7.020;2022-12-07T18:16:14;4.60;99.90
8220;DHT22;4151;51.110;7.020;2022-12-07T18:18:41;4.60;99.90
8220;DHT22;4151;51.110;7.020;2022-12-07T18:21:09;4.60;99.90
8220;DHT22;4151;51.110;7.020;2022-12-07T18:23:38;4.60;99.90
8220;DHT22;4151;51.110;7.020;2022-12-07T18:28:45;4.60;99.90
8220;DHT22;4151;51.110;7.020;2022-12-07T18:31:12;4.50;99.90
8220;DHT22;4151;51.110;7.020;2022-12-07T18:33:38;4.40;99.90
8220;DHT22;4151;51.110;7.020;2022-12-07T18:36:05;4.40;99.90
8220;DHT22;4151;51.110;7.020;2022-12-07T18:38:30;4.30;99.90
8220;DHT22;4151;51.110;7.020;2022-12-07T18:40:56;4.20;99.90